Time;durP1;ratioP1;P1;durP2;ratioP2;P2;SDS_P1;SDS_P2;PMS_P1;PMS_P2;Temp;Humidity;BMP_temperature;BMP_pressure;BME280_temperature;BME280_humidity;BME280_pressure;Samples;Min_cycle;Max_cycle;Signal;HPM_P1;HPM_P2
2022/08/16 00:00:26;;;;;;;1.63;0.90;;;20.80;60.20;;;19.93;65.76;95479.28;5003213;28;20030;-66
2022/08/16 00:02:52;;;;;;;2.15;1.08;;;20.90;60.00;;;19.93;65.50;95473.94;5008852;28;20033;-66
2022/08/16 00:05:18;;;;;;;1.40;0.90;;;20.80;60.00;;;19.93;65.85;95479.28;4985258;28;20448;-65
2022/08/16 00:07:44;;;;;;;1.23;0.70;;;20.80;59.80;;;19.94;64.77;95488.91;5007686;28;20112;-65
2022/08/16 00:10:12;;;;;;;1.13;0.70;;;20.90;59.80;;;19.92;65.07;95484.88;5024425;28;20129;-64
2022/08/16 00:12:40;;;;;;;1.35;0.80;;;20.80;59.70;;;19.91;65.51;95485.91;5007696;28;20040;-65
2022/08/16 00:15:14;;;;;;;1.27;0.93;;;20.90;59.60;;;19.92;65.43;95484.88;5021271;28;20683;-64
2022/08/16 00:17:39;;;;;;;1.33;0.70;;;20.80;59.30;;;19.90;65.62;95487.78;4987209;28;20033;-64
2022/08/16 00:20:09;;;;;;;0.70;0.60;;;20.80;59.50;;;19.87;64.87;95480.31;5019914;28;20060;-64
2022/08/16 00:22:37;;;;;;;1.67;0.77;;;20.80;59.50;;;19.85;64.86;95479.78;5020583;28;20029;-65
2022/08/16 00:25:07;;;;;;;0.85;0.63;;;20.70;59.30;;;19.84;65.08;95478.97;5009131;28;20032;-64
2022/08/16 00:27:33;;;;;;;2.57;0.93;;;20.70;59.30;;;19.84;65.70;95483.50;5004214;28;20033;-64
2022/08/16 00:29:59;;;;;;;1.23;0.80;;;20.70;59.50;;;19.82;65.35;95480.28;5007817;28;20824;-65
2022/08/16 00:32:24;;;;;;;1.27;0.85;;;20.70;59.60;;;19.81;65.43;95478.69;5041014;28;20117;-66
2022/08/16 00:34:50;;;;;;;1.17;0.70;;;20.70;59.60;;;19.80;65.82;95482.44;5023047;28;20123;-65
2022/08/16 00:37:16;;;;;;;1.35;0.85;;;20.70;59.70;;;19.78;66.30;95479.22;4989745;28;20045;-66
2022/08/16 00:39:42;;;;;;;1.10;0.88;;;20.70;59.50;;;19.77;65.36;95478.41;5019598;28;20038;-66
2022/08/16 00:42:08;;;;;;;1.25;0.90;;;20.60;59.70;;;19.74;65.91;95473.59;5008899;28;20045;-66
2022/08/16 00:44:33;;;;;;;4.20;1.30;;;20.60;59.90;;;19.74;66.35;95475.47;5017715;28;20030;-65
2022/08/16 00:47:07;;;;;;;1.65;1.20;;;20.60;60.20;;;19.72;67.39;95469.59;5022062;28;20037;-65
2022/08/16 00:49:33;;;;;;;2.28;1.52;;;20.60;60.30;;;19.69;66.76;95475.44;5020239;28;20045;-66
2022/08/16 00:51:59;;;;;;;1.45;1.35;;;20.60;60.40;;;19.69;66.12;95476.25;5023317;28;20413;-66
2022/08/16 00:54:28;;;;;;;2.03;1.50;;;20.60;60.70;;;19.67;66.44;95472.22;5041030;28;20029;-65
2022/08/16 00:56:54;;;;;;;1.60;1.13;;;20.60;60.70;;;19.66;66.30;95475.97;5022166;28;20041;-65
2022/08/16 00:59:22;;;;;;;2.05;1.23;;;20.60;60.60;;;19.64;67.41;95486.09;5021303;28;20042;-65
2022/08/16 01:01:48;;;;;;;2.33;1.20;;;20.60;60.60;;;19.62;67.14;95480.22;5005539;28;20187;-65
2022/08/16 01:04:19;;;;;;;1.73;1.10;;;20.60;61.20;;;19.58;67.79;95482.59;5007524;28;20545;-66
2022/08/16 01:06:44;;;;;;;1.83;1.17;;;20.50;61.90;;;19.55;68.73;95486.59;5020932;28;20112;-65
2022/08/16 01:09:10;;;;;;;1.17;1.00;;;20.50;62.40;;;19.55;69.17;95481.28;5008157;28;20254;-66
2022/08/16 01:11:36;;;;;;;2.08;0.88;;;20.50;62.40;;;19.55;68.66;95483.13;5022196;28;20061;-65
2022/08/16 01:14:16;;;;;;;3.03;1.33;;;20.50;62.00;;;19.57;69.73;95483.66;5020301;28;20065;-65
2022/08/16 01:16:42;;;;;;;3.00;0.93;;;20.50;62.00;;;19.56;68.66;95482.06;5004604;28;20536;-65
2022/08/16 01:19:33;;;;;;;2.03;1.20;;;20.60;62.00;;;19.57;70.00;95481.00;5018750;28;20057;-65
2022/08/16 01:22:21;;;;;;;1.70;1.13;;;20.50;62.20;;;19.56;69.74;95477.53;5003483;28;20034;-65
2022/08/16 01:24:50;;;;;;;1.85;1.20;;;20.50;62.30;;;19.56;69.19;95482.88;5018507;28;20068;-65
2022/08/16 01:27:25;;;;;;;1.42;1.10;;;20.50;62.40;;;19.56;70.25;95476.72;5004743;28;20061;-65
2022/08/16 01:30:05;;;;;;;1.58;1.17;;;20.50;62.50;;;19.52;70.98;95478.28;5007544;28;20407;-65
2022/08/16 01:32:32;;;;;;;1.73;1.30;;;20.30;63.00;;;19.45;70.09;95475.03;5032335;28;20496;-66
2022/08/16 01:34:57;;;;;;;3.08;1.23;;;20.30;63.50;;;19.41;70.02;95472.09;5024434;28;20045;-65
2022/08/16 01:37:23;;;;;;;1.38;1.20;;;20.30;63.80;;;19.39;70.22;95476.09;4991128;28;20045;-65
2022/08/16 01:39:49;;;;;;;1.75;1.20;;;20.30;64.00;;;19.37;71.59;95481.69;5021077;28;20136;-65
2022/08/16 01:42:15;;;;;;;1.65;1.20;;;20.30;64.10;;;19.36;71.37;95482.75;5014592;28;20065;-65
2022/08/16 01:44:41;;;;;;;2.22;1.30;;;20.40;64.20;;;19.37;71.66;95479.00;5009889;28;20045;-65
2022/08/16 01:47:07;;;;;;;2.30;1.40;;;20.30;64.40;;;19.37;71.49;95481.69;4989132;28;20034;-65
2022/08/16 01:49:37;;;;;;;2.05;1.30;;;20.40;64.50;;;19.37;73.08;95476.34;5024580;28;20037;-68
2022/08/16 01:52:07;;;;;;;1.80;1.35;;;20.30;64.80;;;19.35;72.40;95473.13;5005044;28;20034;-66
2022/08/16 01:54:32;;;;;;;1.88;1.05;;;20.20;65.00;;;19.34;72.83;95466.19;5023017;28;20409;-65
2022/08/16 01:56:59;;;;;;;1.52;1.27;;;20.20;65.20;;;19.34;72.96;95476.06;5004992;28;20138;-66
2022/08/16 01:59:25;;;;;;;1.70;1.40;;;20.30;65.20;;;19.31;72.50;95472.06;5009152;28;20056;-66
2022/08/16 02:01:52;;;;;;;3.10;1.70;;;20.20;65.30;;;19.30;72.91;95472.31;5027213;28;20505;-65
2022/08/16 02:04:19;;;;;;;2.88;1.10;;;20.20;65.40;;;19.27;73.50;95463.78;5021226;28;20168;-65
2022/08/16 02:06:45;;;;;;;1.40;1.27;;;20.20;65.40;;;19.26;74.21;95472.84;5026882;28;20120;-66
2022/08/16 02:09:11;;;;;;;2.65;1.45;;;20.20;65.40;;;19.26;73.82;95477.38;5009766;28;20534;-65
2022/08/16 02:11:37;;;;;;;1.65;1.33;;;20.30;65.40;;;19.23;73.50;95478.66;5004647;28;20120;-65
2022/08/16 02:14:03;;;;;;;1.92;1.45;;;20.20;65.50;;;19.19;74.10;95469.56;5018900;28;20523;-66
2022/08/16 02:16:29;;;;;;;1.52;1.08;;;20.10;65.70;;;19.19;73.57;95461.56;5024601;28;20041;-65
2022/08/16 02:18:55;;;;;;;2.20;1.40;;;20.10;65.80;;;19.19;73.62;95455.44;5025916;28;20065;-65
2022/08/16 02:21:20;;;;;;;2.05;1.15;;;20.10;65.70;;;19.19;73.91;95450.09;5021805;28;20543;-65
2022/08/16 02:23:46;;;;;;;2.22;1.40;;;20.10;65.70;;;19.18;74.68;95448.50;4996020;28;20577;-65
2022/08/16 02:26:13;;;;;;;2.05;1.20;;;20.10;65.70;;;19.17;74.15;95446.91;4995050;28;20033;-65
2022/08/16 02:28:40;;;;;;;1.75;1.40;;;20.10;65.90;;;19.16;73.98;95450.63;5004351;28;20524;-66
2022/08/16 02:31:09;;;;;;;2.67;1.35;;;20.20;65.90;;;19.16;74.42;95458.63;5006232;28;20137;-65
2022/08/16 02:33:35;;;;;;;2.28;1.25;;;20.20;65.80;;;19.14;74.52;95455.41;5010673;28;20445;-65
2022/08/16 02:36:00;;;;;;;1.98;1.10;;;20.20;65.60;;;19.14;74.89;95452.75;4977567;28;20037;-65
2022/08/16 02:38:27;;;;;;;2.55;1.40;;;20.20;65.80;;;19.13;74.50;95451.16;5001503;28;20062;-65
2022/08/16 02:40:55;;;;;;;2.15;1.58;;;20.10;65.80;;;19.13;74.45;95445.81;5011466;28;20099;-65
2022/08/16 02:43:23;;;;;;;1.58;1.25;;;20.10;65.80;;;19.14;74.75;95447.44;5023560;28;20067;-65
2022/08/16 02:45:48;;;;;;;1.67;1.20;;;20.20;65.90;;;19.14;74.55;95455.41;5012427;28;20076;-65
2022/08/16 02:48:14;;;;;;;1.83;1.30;;;20.10;65.80;;;19.11;75.18;95453.28;5022885;28;20160;-66
2022/08/16 02:50:40;;;;;;;1.92;1.40;;;20.10;65.80;;;19.10;74.77;95441.00;5024956;28;20184;-65
2022/08/16 02:53:05;;;;;;;1.33;1.00;;;20.10;65.90;;;19.09;75.71;95450.06;5009634;28;20087;-65
2022/08/16 02:55:31;;;;;;;4.05;1.30;;;20.10;66.00;;;19.08;75.26;95443.13;5012588;28;20080;-65
2022/08/16 02:57:57;;;;;;;1.52;1.20;;;20.10;66.00;;;19.06;75.88;95437.25;5023249;28;20029;-65
2022/08/16 03:00:23;;;;;;;1.50;1.20;;;20.10;66.10;;;19.03;75.49;95440.44;5027855;28;20464;-66
2022/08/16 03:02:49;;;;;;;1.63;1.50;;;20.00;66.20;;;18.99;75.14;95440.13;5020614;28;20029;-65
2022/08/16 03:05:15;;;;;;;1.40;1.20;;;20.00;66.20;;;18.95;74.87;95439.84;5007838;28;20123;-66
2022/08/16 03:07:40;;;;;;;3.00;1.30;;;19.90;66.50;;;18.89;75.65;95435.56;5009526;28;20072;-65
2022/08/16 03:10:08;;;;;;;1.88;1.27;;;19.80;66.50;;;18.86;75.94;95441.41;5023949;28;20041;-65
2022/08/16 03:12:34;;;;;;;3.22;1.40;;;19.70;66.70;;;18.81;75.60;95438.72;5025646;28;20037;-65
2022/08/16 03:14:59;;;;;;;2.25;1.45;;;19.70;67.00;;;18.75;76.59;95450.38;5026763;28;20068;-65
2022/08/16 03:17:25;;;;;;;2.00;1.55;;;19.70;67.10;;;18.71;75.87;95454.59;5002788;28;20037;-66
2022/08/16 03:19:52;;;;;;;1.83;1.40;;;19.60;67.20;;;18.65;76.27;95455.63;4997830;28;20030;-65
2022/08/16 03:22:19;;;;;;;2.85;1.63;;;19.50;67.50;;;18.59;76.36;95461.97;5025805;28;20135;-65
2022/08/16 03:24:44;;;;;;;1.75;1.30;;;19.50;67.60;;;18.54;76.95;95454.72;5025865;28;20041;-65
2022/08/16 03:27:10;;;;;;;2.13;1.40;;;19.50;67.90;;;18.50;77.78;95458.13;5008287;28;20041;-65
2022/08/16 03:29:36;;;;;;;4.05;1.42;;;19.40;68.00;;;18.47;77.79;95463.97;5012144;28;20065;-65
2022/08/16 03:32:02;;;;;;;1.58;1.23;;;19.40;68.20;;;18.44;77.29;95469.81;5021507;28;20037;-65
2022/08/16 03:34:29;;;;;;;1.95;1.38;;;19.30;68.30;;;18.40;78.10;95472.19;4980504;28;20033;-65
2022/08/16 03:36:54;;;;;;;3.25;1.30;;;19.30;68.40;;;18.33;78.16;95469.75;5004266;28;20494;-65
2022/08/16 03:39:20;;;;;;;1.65;1.33;;;19.30;68.50;;;18.30;78.45;95464.09;4999097;28;20041;-65
2022/08/16 03:41:46;;;;;;;3.05;1.20;;;19.20;68.50;;;18.27;79.12;95470.72;5025448;28;20029;-65
2022/08/16 03:44:12;;;;;;;2.25;1.42;;;19.20;68.50;;;18.25;78.95;95478.16;5002381;28;20039;-66
2022/08/16 03:46:38;;;;;;;2.10;1.67;;;19.20;68.40;;;18.22;78.73;95478.69;5028454;28;20037;-65
2022/08/16 03:49:03;;;;;;;2.30;1.30;;;19.10;68.50;;;18.18;78.00;95482.91;5026461;28;20056;-65
2022/08/16 03:51:29;;;;;;;1.50;1.10;;;19.10;68.40;;;18.16;78.71;95471.69;4993864;28;20037;-65
2022/08/16 03:53:56;;;;;;;1.52;1.20;;;19.10;68.40;;;18.14;78.88;95475.66;4993625;28;20541;-65
2022/08/16 03:56:22;;;;;;;1.40;1.08;;;19.10;68.60;;;18.12;78.71;95481.25;5008092;28;20041;-65
2022/08/16 03:58:48;;;;;;;1.90;1.30;;;19.10;68.60;;;18.11;78.25;95478.84;5024050;28;20548;-65
2022/08/16 04:01:14;;;;;;;2.28;1.33;;;19.10;68.50;;;18.09;78.52;95473.75;5008100;28;20105;-65
2022/08/16 04:03:40;;;;;;;1.63;1.02;;;19.10;68.60;;;18.09;79.29;95468.41;5025824;28;20128;-66
2022/08/16 04:06:06;;;;;;;1.95;1.25;;;19.10;68.70;;;18.06;78.67;95472.38;5025274;28;20416;-65
2022/08/16 04:08:32;;;;;;;1.50;1.10;;;19.10;68.70;;;18.05;78.38;95472.63;5012552;28;20588;-65
2022/08/16 04:10:58;;;;;;;1.65;1.25;;;19.00;68.70;;;18.01;79.17;95466.22;5013502;28;20140;-65
2022/08/16 04:13:23;;;;;;;2.67;1.20;;;18.90;68.80;;;18.02;78.78;95473.16;5021547;28;20179;-65
2022/08/16 04:15:51;;;;;;;3.28;1.10;;;19.00;68.90;;;17.99;79.58;95469.13;5025499;28;20532;-65
2022/08/16 04:18:17;;;;;;;1.50;1.10;;;19.00;69.00;;;17.98;80.17;95474.69;5007928;28;20056;-66
2022/08/16 04:20:43;;;;;;;1.40;1.20;;;18.90;69.00;;;17.93;79.71;95472.81;5010527;28;20484;-66
2022/08/16 04:23:09;;;;;;;1.48;1.23;;;18.90;69.10;;;17.89;79.13;95473.56;5009059;28;20152;-65
2022/08/16 04:25:35;;;;;;;2.42;1.20;;;18.80;69.10;;;17.86;79.52;95466.03;5002564;28;20128;-64
2022/08/16 04:28:01;;;;;;;1.70;1.20;;;18.90;68.90;;;17.85;80.04;95473.22;4996972;28;20037;-65
2022/08/16 04:30:27;;;;;;;4.50;1.25;;;18.80;69.10;;;17.85;79.43;95477.75;4992745;28;20091;-64
2022/08/16 04:32:53;;;;;;;1.67;1.40;;;18.90;69.10;;;17.87;80.29;95480.97;4999121;28;20459;-64
2022/08/16 04:35:20;;;;;;;1.70;1.05;;;18.80;69.10;;;17.88;79.70;95487.88;4996146;28;20038;-65
2022/08/16 04:37:46;;;;;;;2.78;1.38;;;18.90;68.90;;;17.86;79.49;95485.47;4988647;28;20092;-64
2022/08/16 04:40:12;;;;;;;2.03;1.33;;;18.90;69.00;;;17.86;79.88;95480.16;5004948;28;20545;-65
2022/08/16 04:42:39;;;;;;;1.48;0.98;;;18.90;69.00;;;17.86;80.24;95484.66;5025238;28;20026;-65
2022/08/16 04:45:06;;;;;;;1.90;1.10;;;18.90;68.90;;;17.87;80.05;95486.28;5009262;28;20025;-65
2022/08/16 04:47:32;;;;;;;2.67;1.23;;;18.90;69.10;;;17.89;79.76;95489.53;5009673;28;20037;-64
2022/08/16 04:49:58;;;;;;;2.65;1.35;;;18.90;69.10;;;17.88;80.40;95487.88;5022444;28;20112;-64
2022/08/16 04:52:23;;;;;;;1.50;1.13;;;19.00;69.10;;;17.90;80.56;95491.13;5008660;28;20251;-65
2022/08/16 04:54:49;;;;;;;3.50;1.33;;;19.00;69.10;;;17.90;80.94;95499.09;4999592;28;20072;-64
2022/08/16 04:57:15;;;;;;;2.30;1.30;;;19.00;69.20;;;17.92;80.77;95495.13;4995876;28;20046;-64
2022/08/16 04:59:41;;;;;;;1.90;1.50;;;19.00;69.20;;;17.93;81.19;95502.06;5008727;28;20476;-64
2022/08/16 05:02:06;;;;;;;1.98;1.45;;;19.10;69.20;;;17.94;80.52;95495.69;5019986;28;20525;-65
2022/08/16 05:04:32;;;;;;;2.20;1.40;;;19.10;69.30;;;17.98;81.29;95501.31;5007083;28;20124;-64
2022/08/16 05:06:58;;;;;;;2.05;1.38;;;19.10;69.20;;;17.97;81.10;95511.16;5006082;28;20089;-64
2022/08/16 05:09:23;;;;;;;2.28;1.60;;;19.10;69.40;;;17.99;81.35;95502.91;5006507;28;20131;-66
2022/08/16 05:11:49;;;;;;;2.83;1.67;;;19.10;69.50;;;18.00;81.62;95508.00;5006175;28;20050;-65
2022/08/16 05:14:15;;;;;;;2.30;1.13;;;19.10;69.80;;;18.03;81.48;95506.69;5025107;28;20124;-66
2022/08/16 05:16:41;;;;;;;2.78;1.65;;;19.20;69.70;;;18.05;82.02;95504.56;5012087;28;20619;-66
2022/08/16 05:19:07;;;;;;;2.88;1.48;;;19.10;69.60;;;18.04;82.28;95508.28;5012599;28;20505;-65
2022/08/16 05:21:34;;;;;;;3.42;1.67;;;19.10;69.70;;;18.05;81.63;95515.22;5008822;28;20075;-65
2022/08/16 05:23:59;;;;;;;2.10;1.58;;;19.10;70.00;;;18.04;82.15;95516.28;5014671;28;20405;-64
2022/08/16 05:26:27;;;;;;;2.30;1.70;;;19.10;70.00;;;18.05;81.91;95504.56;5007022;28;20041;-64
2022/08/16 05:28:53;;;;;;;3.15;1.90;;;19.10;70.30;;;18.06;82.87;95500.84;5029124;28;20049;-64
2022/08/16 05:31:19;;;;;;;4.80;1.73;;;19.20;70.20;;;18.10;82.94;95507.28;5026603;28;20421;-64
2022/08/16 05:33:44;;;;;;;1.80;1.30;;;19.30;69.90;;;18.15;83.18;95510.03;5026637;28;20038;-65
2022/08/16 05:36:10;;;;;;;1.80;1.40;;;19.50;69.60;;;18.23;82.92;95520.22;4983786;28;20058;-65
2022/08/16 05:38:36;;;;;;;2.10;1.40;;;19.50;69.40;;;18.29;83.67;95508.53;5012679;28;20048;-64
2022/08/16 05:41:03;;;;;;;3.47;1.73;;;19.60;69.40;;;18.34;83.38;95513.94;5031017;28;20568;-64
2022/08/16 05:43:28;;;;;;;2.70;1.58;;;19.70;68.80;;;18.44;82.69;95520.41;5011590;28;20117;-64
2022/08/16 05:45:54;;;;;;;3.83;1.80;;;19.90;68.60;;;18.54;81.57;95517.81;4971685;28;20044;-64
2022/08/16 05:48:20;;;;;;;3.10;1.60;;;20.00;67.80;;;18.63;81.03;95517.16;4997224;28;20536;-64
2022/08/16 05:50:46;;;;;;;2.42;1.70;;;20.10;67.40;;;18.73;80.80;95519.09;5026635;28;20037;-65
2022/08/16 05:53:12;;;;;;;2.33;1.58;;;20.20;67.10;;;18.81;80.76;95507.19;4999010;28;20072;-64
2022/08/16 05:55:38;;;;;;;3.95;1.65;;;20.30;66.80;;;18.87;81.26;95512.28;5008605;28;20034;-64
2022/08/16 05:58:03;;;;;;;3.42;2.03;;;20.40;66.50;;;18.97;80.92;95507.03;5008540;28;20128;-64
2022/08/16 06:00:30;;;;;;;2.75;1.70;;;20.50;66.20;;;19.05;79.76;95518.28;5025491;28;20029;-65
2022/08/16 06:02:56;;;;;;;2.42;1.80;;;20.60;65.60;;;19.16;79.12;95511.94;5023440;28;20510;-68
2022/08/16 06:05:23;;;;;;;2.40;1.60;;;20.80;65.20;;;19.29;78.95;95514.19;5024189;28;20049;-66
2022/08/16 06:07:49;;;;;;;2.00;1.52;;;20.90;65.10;;;19.40;79.46;95510.50;4992881;28;20026;-66
2022/08/16 06:10:14;;;;;;;3.35;1.50;;;21.10;65.10;;;19.52;79.04;95508.44;5012265;28;20108;-68
2022/08/16 06:12:40;;;;;;;2.40;1.63;;;21.20;63.70;;;19.61;78.41;95516.78;5021537;28;20331;-68
2022/08/16 06:15:11;;;;;;;4.47;1.90;;;21.30;63.30;;;19.70;77.17;95511.75;5004406;28;20124;-64
2022/08/16 06:17:37;;;;;;;2.17;1.73;;;21.40;63.00;;;19.79;77.33;95512.84;5010012;28;20731;-65
2022/08/16 06:20:04;;;;;;;3.92;1.45;;;21.50;62.80;;;19.89;77.21;95513.69;4993036;28;20094;-65
2022/08/16 06:22:30;;;;;;;3.10;1.70;;;21.70;62.80;;;20.02;77.13;95517.75;5020685;28;20045;-65
2022/08/16 06:24:55;;;;;;;4.47;1.60;;;21.80;62.40;;;20.14;76.03;95517.50;5011474;28;20058;-65
2022/08/16 06:27:21;;;;;;;2.05;1.60;;;22.00;61.30;;;20.24;74.59;95511.38;4998628;28;20038;-65
2022/08/16 06:29:47;;;;;;;2.90;1.52;;;22.00;60.80;;;20.29;74.17;95516.75;5002245;28;20128;-65
2022/08/16 06:32:13;;;;;;;2.13;1.45;;;21.90;61.00;;;20.35;74.13;95515.66;5009502;28;20056;-65
2022/08/16 06:34:39;;;;;;;1.98;1.20;;;21.90;60.30;;;20.43;71.89;95520.53;5011638;28;20064;-64
2022/08/16 06:37:05;;;;;;;2.20;1.38;;;22.00;59.10;;;20.49;71.38;95527.50;5001889;28;20412;-65
2022/08/16 06:39:31;;;;;;;1.92;1.50;;;22.10;58.90;;;20.56;71.22;95517.34;5002902;28;20447;-64
2022/08/16 06:41:57;;;;;;;3.05;1.60;;;22.10;59.20;;;20.67;71.07;95523.50;5003568;28;20079;-65
2022/08/16 06:44:23;;;;;;;3.25;1.63;;;22.30;59.30;;;20.76;70.88;95527.25;5006602;28;20099;-64
2022/08/16 06:46:48;;;;;;;1.92;1.30;;;22.50;59.00;;;20.86;70.56;95532.63;5011092;28;20037;-65
2022/08/16 06:49:14;;;;;;;4.45;1.50;;;22.50;58.20;;;20.94;69.95;95534.75;5017181;28;20112;-64
2022/08/16 06:51:40;;;;;;;5.68;1.52;;;22.60;58.30;;;21.03;69.78;95538.47;4982593;28;20569;-65
2022/08/16 06:54:06;;;;;;;2.35;1.42;;;22.60;57.60;;;21.11;69.36;95529.13;5024842;28;20575;-64
2022/08/16 06:56:32;;;;;;;2.80;1.20;;;22.70;57.10;;;21.19;69.29;95536.59;5005771;28;20053;-64
2022/08/16 06:58:58;;;;;;;2.72;1.52;;;22.80;57.70;;;21.26;67.91;95537.13;5002703;28;20114;-64
2022/08/16 07:01:24;;;;;;;2.63;1.15;;;22.90;56.10;;;21.33;68.33;95536.88;5004062;28;20038;-64
2022/08/16 07:03:50;;;;;;;2.38;1.30;;;23.00;57.10;;;21.39;68.56;95541.94;5026776;28;20453;-65
2022/08/16 07:06:17;;;;;;;3.17;1.40;;;23.00;56.80;;;21.47;67.58;95539.78;5003684;28;20099;-66
2022/08/16 07:08:45;;;;;;;3.40;1.90;;;23.10;55.90;;;21.54;66.73;95537.66;5001278;28;20522;-65
2022/08/16 07:11:11;;;;;;;3.90;1.10;;;23.20;56.00;;;21.63;66.94;95531.44;4999059;28;20037;-63
2022/08/16 07:13:37;;;;;;;1.75;1.10;;;23.40;55.20;;;21.75;65.94;95533.84;5008230;28;20037;-65
2022/08/16 07:16:04;;;;;;;2.20;1.20;;;23.50;53.70;;;21.89;64.67;95532.16;5025657;28;20099;-67
2022/08/16 07:18:30;;;;;;;2.03;1.23;;;23.70;52.50;;;22.01;63.85;95532.66;5004374;28;20049;-66
2022/08/16 07:20:57;;;;;;;3.50;1.70;;;23.80;52.60;;;22.12;63.18;95527.28;4998129;28;20034;-66
2022/08/16 07:23:23;;;;;;;1.65;1.20;;;23.90;51.70;;;22.23;62.80;95523.47;5014390;28;20037;-66
2022/08/16 07:25:49;;;;;;;3.40;1.25;;;24.00;52.00;;;22.37;62.07;95520.97;5040696;28;20037;-67
2022/08/16 07:28:16;;;;;;;1.90;1.10;;;24.30;50.70;;;22.53;60.89;95517.94;4999687;28;20041;-66
2022/08/16 07:30:42;;;;;;;3.13;1.38;;;24.40;49.20;;;22.69;60.21;95520.50;4998339;28;20030;-68
2022/08/16 07:33:09;;;;;;;2.13;1.30;;;24.60;48.30;;;22.84;59.78;95515.03;5007362;28;20041;-68
2022/08/16 07:35:35;;;;;;;2.15;1.42;;;24.80;48.70;;;23.03;58.24;95524.00;4992621;28;20049;-67
2022/08/16 07:38:01;;;;;;;2.53;1.30;;;25.10;47.00;;;23.20;58.38;95515.56;5006584;28;20117;-66
2022/08/16 07:40:27;;;;;;;1.83;1.30;;;25.40;47.10;;;23.41;57.57;95521.53;5005240;28;20121;-67
2022/08/16 07:42:53;;;;;;;1.55;1.30;;;25.60;46.80;;;23.60;57.23;95513.56;5005181;28;20557;-72
2022/08/16 07:45:19;;;;;;;2.03;1.33;;;25.80;45.90;;;23.79;56.91;95511.75;4995363;28;20172;-74
2022/08/16 07:47:44;;;;;;;2.30;1.20;;;26.10;45.80;;;24.00;55.82;95515.00;5009688;28;20024;-73
2022/08/16 07:50:12;;;;;;;3.25;1.50;;;26.30;44.40;;;24.20;55.15;95512.03;5029761;28;20075;-73
2022/08/16 07:52:39;;;;;;;7.72;1.80;;;26.60;44.00;;;24.40;54.47;95517.16;5029487;28;20509;-73
2022/08/16 07:55:06;;;;;;;3.33;1.40;;;26.70;43.10;;;24.60;53.28;95509.88;5000006;28;20046;-73
2022/08/16 07:57:31;;;;;;;2.00;1.20;;;26.90;42.80;;;24.79;52.95;95507.97;5008984;28;20049;-73
2022/08/16 07:59:59;;;;;;;3.65;1.60;;;27.20;42.70;;;24.98;52.59;95514.13;5010874;28;20029;-73
2022/08/16 08:02:29;;;;;;;5.63;1.50;;;27.40;41.90;;;25.15;52.21;95518.19;5017754;28;20048;-72
2022/08/16 08:04:55;;;;;;;3.10;1.65;;;27.50;42.00;;;25.30;52.10;95513.34;4994460;28;20054;-72
2022/08/16 08:07:21;;;;;;;5.20;1.67;;;27.70;41.80;;;25.46;51.66;95505.78;4974145;28;20034;-72
2022/08/16 08:09:47;;;;;;;2.63;1.35;;;27.90;41.60;;;25.65;50.97;95511.91;5011527;28;20108;-72
2022/08/16 08:12:13;;;;;;;3.15;1.40;;;28.10;40.20;;;25.85;50.24;95513.44;5007727;28;20506;-72
2022/08/16 08:14:39;;;;;;;3.65;1.60;;;28.50;40.10;;;26.04;50.03;95515.22;4997376;28;20112;-72
2022/08/16 08:17:06;;;;;;;3.70;1.50;;;28.70;39.80;;;26.27;49.87;95518.78;4992358;28;20069;-72
2022/08/16 08:19:36;;;;;;;2.22;1.30;;;29.00;40.10;;;26.48;47.93;95509.97;4976687;28;20113;-72
2022/08/16 08:22:03;;;;;;;2.22;1.30;;;29.10;38.80;;;26.64;48.96;95512.31;5001377;28;20037;-72
2022/08/16 08:24:31;;;;;;;2.78;1.33;;;29.30;39.60;;;26.79;48.77;95515.47;5011319;28;20038;-71
2022/08/16 08:26:58;;;;;;;2.83;1.40;;;29.40;38.60;;;26.94;48.07;95516.22;5028190;28;20520;-72
2022/08/16 08:29:24;;;;;;;5.22;1.65;;;29.60;38.10;;;27.04;47.64;95505.19;5012061;28;20124;-72
2022/08/16 08:31:51;;;;;;;2.47;1.50;;;29.70;38.10;;;27.15;47.58;95514.59;5027378;28;20113;-71
2022/08/16 08:34:17;;;;;;;3.03;1.63;;;30.00;37.70;;;27.31;46.36;95515.81;5016628;28;20104;-71
2022/08/16 08:36:43;;;;;;;2.55;1.58;;;30.10;36.60;;;27.47;46.21;95518.94;4992837;28;20038;-71
2022/08/16 08:39:09;;;;;;;2.65;1.42;;;30.30;36.70;;;27.64;45.96;95520.97;4998639;28;20192;-72
2022/08/16 08:41:34;;;;;;;2.45;1.58;;;30.50;36.90;;;27.78;45.93;95518.94;5009886;28;20038;-71
2022/08/16 08:44:00;;;;;;;2.88;1.42;;;30.70;36.40;;;27.89;45.46;95520.25;5001550;28;20500;-72
2022/08/16 08:46:26;;;;;;;3.10;1.50;;;30.90;36.40;;;28.05;45.61;95521.41;5008504;28;20456;-71
2022/08/16 08:48:52;;;;;;;3.13;1.45;;;31.10;36.80;;;28.30;45.23;95519.13;4995742;28;20095;-69
2022/08/16 08:51:18;;;;;;;2.97;1.50;;;31.40;35.70;;;28.54;44.62;95508.66;5029614;28;21673;-67
2022/08/16 08:53:44;;;;;;;2.65;1.70;;;31.70;35.20;;;28.74;43.84;95511.81;5024454;28;20030;-72
2022/08/16 08:56:11;;;;;;;3.08;1.50;;;31.90;34.70;;;28.90;43.64;95510.25;4996037;28;20390;-73
2022/08/16 08:58:37;;;;;;;3.28;1.55;;;32.00;34.60;;;29.05;43.73;95515.19;5028966;28;20025;-66
2022/08/16 09:01:06;;;;;;;5.05;1.92;;;32.10;34.20;;;29.21;41.15;95510.06;4984470;28;20497;-66
2022/08/16 09:03:33;;;;;;;2.72;1.50;;;32.30;33.50;;;29.33;41.86;95514.81;4997747;28;20029;-66
2022/08/16 09:06:00;;;;;;;4.20;1.80;;;32.30;32.80;;;29.56;41.28;95518.91;5010399;28;20373;-66
2022/08/16 09:08:25;;;;;;;2.97;1.83;;;32.80;32.40;;;29.68;40.94;95512.84;5012075;28;20132;-69
2022/08/16 09:10:54;;;;;;;3.97;1.58;;;32.70;32.60;;;29.79;39.86;95509.41;4995973;28;20061;-66
2022/08/16 09:13:21;;;;;;;2.97;1.60;;;33.00;32.10;;;29.92;40.35;95517.69;4996063;28;20390;-66
2022/08/16 09:15:48;;;;;;;2.30;1.40;;;33.00;32.40;;;30.08;39.68;95511.38;4995494;28;20446;-66
2022/08/16 09:18:15;;;;;;;2.63;1.38;;;33.20;31.90;;;30.21;39.53;95511.47;5014291;28;20109;-70
2022/08/16 09:20:41;;;;;;;2.35;1.52;;;33.30;32.00;;;30.40;39.06;95512.63;4999442;28;20454;-66
2022/08/16 09:23:06;;;;;;;2.95;1.90;;;33.60;31.70;;;30.56;38.50;95506.63;5001194;28;20050;-65
2022/08/16 09:25:33;;;;;;;2.70;1.38;;;33.60;30.70;;;30.75;38.36;95502.34;5031236;28;20037;-66
2022/08/16 09:27:59;;;;;;;2.88;1.33;;;34.10;31.20;;;31.05;38.58;95494.91;5026315;28;20455;-66
2022/08/16 09:30:25;;;;;;;5.80;1.80;;;34.50;30.40;;;31.30;37.45;95506.66;4973333;28;20109;-67
2022/08/16 09:32:53;;;;;;;5.32;1.77;;;34.60;28.70;;;31.53;37.31;95498.09;5017824;28;20175;-66
2022/08/16 09:35:20;;;;;;;2.78;1.77;;;35.00;29.70;;;31.77;36.52;95497.38;4985682;28;20041;-67
2022/08/16 09:37:46;;;;;;;3.45;1.80;;;35.30;28.70;;;31.98;36.28;95493.41;4993535;28;20522;-65
2022/08/16 09:40:12;;;;;;;5.40;1.67;;;35.50;28.30;;;32.22;36.29;95487.16;4999619;28;20100;-65
2022/08/16 09:42:39;;;;;;;3.03;1.60;;;36.00;28.80;;;32.53;35.82;95491.19;5009134;28;20121;-65
2022/08/16 09:45:07;;;;;;;3.03;1.95;;;36.40;28.00;;;32.75;35.40;95487.97;5000297;28;20628;-66
2022/08/16 09:47:39;;;;;;;3.80;1.75;;;36.50;26.80;;;32.92;33.82;95486.13;5005077;28;20498;-65
2022/08/16 09:50:10;;;;;;;3.20;1.40;;;36.60;27.10;;;33.16;32.72;95491.47;4994823;28;20041;-66
2022/08/16 09:52:36;;;;;;;3.92;1.75;;;36.90;26.10;;;33.30;33.97;95480.94;5014177;28;20041;-65
2022/08/16 09:55:07;;;;;;;2.05;1.40;;;37.10;26.30;;;33.55;32.16;95486.28;5016586;28;20029;-65
2022/08/16 09:57:33;;;;;;;6.72;2.20;;;37.50;25.40;;;33.68;32.79;95485.03;4982708;28;20068;-66
2022/08/16 10:00:01;;;;;;;5.05;1.60;;;37.30;25.20;;;33.75;32.49;95487.97;4990078;28;20037;-66
2022/08/16 10:02:28;;;;;;;2.75;1.73;;;37.50;24.60;;;33.92;32.01;95495.81;4994939;28;20034;-65
2022/08/16 10:04:57;;;;;;;2.28;1.52;;;37.90;24.20;;;33.84;30.91;95488.59;5034156;28;20101;-70
2022/08/16 10:07:27;;;;;;;3.42;1.67;;;37.20;25.30;;;33.85;30.82;95486.66;5002950;28;20391;-66
2022/08/16 10:09:53;;;;;;;2.03;1.52;;;38.00;24.50;;;34.05;31.33;95483.66;5025409;28;20029;-65
2022/08/16 10:15:04;;;;;;;3.67;1.75;;;39.50;23.80;;;34.67;31.38;95479.22;5001911;28;20088;-66
2022/08/16 10:17:30;;;;;;;5.97;1.73;;;39.90;21.80;;;34.76;30.80;95478.97;5012444;28;20045;-66
2022/08/16 10:19:55;;;;;;;2.47;1.70;;;39.80;21.90;;;34.94;30.45;95471.97;5025404;28;20061;-65